createdAt,value
2023-02-21T00:00:59.804Z,19.98
2023-02-21T00:03:45.679Z,20.00
2023-02-21T00:06:31.200Z,20.27
2023-02-21T00:09:17.128Z,20.55
2023-02-21T00:12:02.812Z,21.13
2023-02-21T00:14:48.626Z,20.85
2023-02-21T00:17:38.539Z,20.38
2023-02-21T00:20:24.306Z,21.00
2023-02-21T00:23:10.091Z,19.95
2023-02-21T00:25:55.409Z,21.92
2023-02-21T00:28:41.237Z,20.45
2023-02-21T00:31:26.674Z,22.40
2023-02-21T00:34:13.769Z,21.35
2023-02-21T00:36:58.972Z,21.35
2023-02-21T00:39:44.608Z,21.38
2023-02-21T00:42:32.529Z,22.80
2023-02-21T00:45:18.277Z,22.52
2023-02-21T00:48:03.630Z,22.65
2023-02-21T00:50:50.704Z,22.63
2023-02-21T00:53:36.515Z,22.30
2023-02-21T00:56:22.893Z,21.92
2023-02-21T00:59:08.339Z,22.83
2023-02-21T01:01:53.606Z,23.02
2023-02-21T01:04:39.222Z,21.92
2023-02-21T01:07:26.503Z,23.42
2023-02-21T01:10:11.879Z,23.48
2023-02-21T01:12:57.141Z,23.33
2023-02-21T01:15:42.828Z,24.45
2023-02-21T01:18:28.101Z,24.85
2023-02-21T01:21:13.958Z,25.63
2023-02-21T01:24:01.322Z,24.58
2023-02-21T01:26:47.162Z,22.95
2023-02-21T01:29:32.422Z,25.88
2023-02-21T01:32:18.281Z,25.65
2023-02-21T01:35:03.607Z,25.25
2023-02-21T01:37:49.023Z,26.70
2023-02-21T01:40:36.165Z,24.83
2023-02-21T01:43:28.249Z,25.98
2023-02-21T01:46:14.559Z,26.33
2023-02-21T01:49:00.604Z,26.35
2023-02-21T01:51:51.792Z,26.92
2023-02-21T01:54:39.137Z,26.67
2023-02-21T01:57:27.202Z,25.77
2023-02-21T02:00:16.307Z,28.13
2023-02-21T02:03:09.121Z,27.88
2023-02-21T02:05:57.278Z,26.90
2023-02-21T02:08:46.554Z,26.60
2023-02-21T02:11:45.234Z,28.73
2023-02-21T02:14:36.598Z,29.83
2023-02-21T02:17:16.525Z,26.67
2023-02-21T02:20:04.941Z,28.45
2023-02-21T02:23:08.268Z,27.15
2023-02-21T02:28:34.236Z,27.23
2023-02-21T02:31:26.695Z,26.95
2023-02-21T02:34:30.481Z,28.85
2023-02-21T02:37:09.884Z,28.52
2023-02-21T02:39:45.860Z,29.92
2023-02-21T02:42:26.980Z,27.70
2023-02-21T02:45:00.227Z,28.95
2023-02-21T02:47:34.120Z,29.40
2023-02-21T02:50:04.653Z,29.70
2023-02-21T02:52:34.153Z,29.65
2023-02-21T02:55:04.012Z,28.30
2023-02-21T02:57:40.664Z,29.92
2023-02-21T03:00:10.856Z,30.45
2023-02-21T03:02:52.782Z,30.95
2023-02-21T03:05:42.769Z,31.23
2023-02-21T03:08:18.468Z,31.05
2023-02-21T03:10:54.574Z,30.23
2023-02-21T03:13:31.791Z,30.83
2023-02-21T03:16:06.792Z,29.25
2023-02-21T03:18:44.027Z,27.20
2023-02-21T03:21:16.673Z,27.23
2023-02-21T03:26:18.333Z,26.08
2023-02-21T03:28:47.936Z,25.55
2023-02-21T03:31:23.347Z,24.17
2023-02-21T03:33:51.481Z,26.30
2023-02-21T03:36:22.823Z,26.10
2023-02-21T03:38:52.259Z,26.95
2023-02-21T03:41:20.610Z,25.92
2023-02-21T03:43:48.700Z,26.35
2023-02-21T03:46:16.874Z,28.23
2023-02-21T03:48:44.958Z,28.15
2023-02-21T03:51:13.477Z,27.13
2023-02-21T03:53:41.727Z,26.42
2023-02-21T03:56:11.175Z,26.60
2023-02-21T03:58:39.288Z,27.23
2023-02-21T04:01:07.438Z,27.40
2023-02-21T04:03:35.542Z,30.08
2023-02-21T04:06:05.167Z,29.63
2023-02-21T04:08:33.204Z,30.52
2023-02-21T04:11:01.304Z,31.45
2023-02-21T04:13:30.662Z,32.63
2023-02-21T04:15:58.785Z,32.13
2023-02-21T04:18:27.055Z,32.03
2023-02-21T04:20:55.102Z,31.42
2023-02-21T04:23:23.623Z,33.28
2023-02-21T04:25:51.771Z,33.40
2023-02-21T04:28:20.354Z,32.28
2023-02-21T04:30:49.792Z,32.28
2023-02-21T04:33:18.025Z,31.88
2023-02-21T04:35:46.176Z,33.42
2023-02-21T04:38:14.205Z,31.83
2023-02-21T04:40:42.302Z,31.42
2023-02-21T04:43:10.517Z,32.35
2023-02-21T04:45:38.729Z,31.42
2023-02-21T04:48:08.404Z,31.60
2023-02-21T04:50:36.612Z,32.65
2023-02-21T04:53:04.704Z,31.25
2023-02-21T04:55:32.728Z,31.58
2023-02-21T04:58:00.697Z,31.35
2023-02-21T05:00:28.773Z,30.95
2023-02-21T05:02:56.773Z,31.00
2023-02-21T05:05:26.504Z,31.42
2023-02-21T05:07:54.558Z,31.30
2023-02-21T05:10:23.333Z,31.13
2023-02-21T05:12:53.684Z,30.27
2023-02-21T05:15:21.730Z,29.42
2023-02-21T05:17:49.766Z,29.00
2023-02-21T05:20:17.992Z,29.50
2023-02-21T05:22:50.254Z,30.40
2023-02-21T05:25:19.702Z,28.13
2023-02-21T05:27:48.429Z,30.45
2023-02-21T05:30:19.095Z,29.42
2023-02-21T05:32:47.381Z,29.90
2023-02-21T05:35:18.584Z,30.42
2023-02-21T05:37:47.994Z,29.35
2023-02-21T05:40:17.088Z,32.00
2023-02-21T05:42:45.446Z,29.58
2023-02-21T05:45:13.508Z,32.47
2023-02-21T05:47:41.628Z,31.85
2023-02-21T05:50:10.090Z,31.20
2023-02-21T05:52:38.177Z,30.15
2023-02-21T05:55:07.992Z,29.95
2023-02-21T05:57:39.546Z,30.15
2023-02-21T06:00:09.283Z,31.02
2023-02-21T06:02:37.324Z,30.15
2023-02-21T06:05:05.785Z,31.42
2023-02-21T06:07:33.850Z,31.02
2023-02-21T06:10:01.958Z,30.33
2023-02-21T06:12:31.547Z,30.48
2023-02-21T06:14:59.608Z,30.20
2023-02-21T06:17:29.881Z,29.50
2023-02-21T06:19:58.346Z,31.65
2023-02-21T06:22:26.790Z,31.30
2023-02-21T06:24:54.837Z,31.60
2023-02-21T06:27:22.943Z,32.83
2023-02-21T06:29:52.362Z,31.15
2023-02-21T06:32:20.523Z,32.13
2023-02-21T06:34:48.845Z,32.83
2023-02-21T06:37:16.948Z,30.85
2023-02-21T06:39:45.070Z,31.30
2023-02-21T06:42:14.873Z,30.40
2023-02-21T06:44:44.978Z,30.73
2023-02-21T06:47:14.667Z,30.75
2023-02-21T06:49:42.840Z,30.52
2023-02-21T06:52:11.335Z,30.35
2023-02-21T06:54:39.659Z,29.45
2023-02-21T06:57:07.770Z,29.42
2023-02-21T06:59:35.849Z,28.55
2023-02-21T07:02:04.992Z,30.10
2023-02-21T07:04:34.401Z,29.25
2023-02-21T07:07:02.624Z,28.33
2023-02-21T07:09:30.769Z,29.75
2023-02-21T07:11:58.894Z,28.50
2023-02-21T07:14:26.923Z,29.45
2023-02-21T07:16:55.056Z,28.65
2023-02-21T07:19:23.240Z,28.02
2023-02-21T07:21:52.698Z,27.55
2023-02-21T07:24:20.756Z,28.95
2023-02-21T07:26:49.412Z,29.52
2023-02-21T07:29:18.105Z,28.33
2023-02-21T07:31:46.290Z,29.20
2023-02-21T07:34:15.258Z,28.50
2023-02-21T07:36:43.361Z,29.50
2023-02-21T07:39:13.302Z,27.33
2023-02-21T07:41:41.467Z,31.20
2023-02-21T07:44:10.196Z,29.73
2023-02-21T07:46:38.429Z,29.15
2023-02-21T07:49:09.548Z,27.60
2023-02-21T07:51:37.622Z,28.90
2023-02-21T07:54:05.680Z,28.02
2023-02-21T07:56:35.112Z,27.52
2023-02-21T07:59:05.916Z,28.52
2023-02-21T08:01:34.064Z,29.27
2023-02-21T08:04:04.228Z,28.30
2023-02-21T08:06:32.972Z,26.65
2023-02-21T08:09:01.010Z,28.05
2023-02-21T08:11:29.089Z,29.63
2023-02-21T08:13:58.630Z,29.17
2023-02-21T08:16:28.534Z,28.45
2023-02-21T08:18:56.821Z,27.77
2023-02-21T08:21:27.398Z,28.73
2023-02-21T08:23:56.024Z,29.90
2023-02-21T08:26:26.757Z,30.50
2023-02-21T08:28:54.798Z,27.50
2023-02-21T08:31:24.307Z,27.98
2023-02-21T08:33:52.418Z,27.30
2023-02-21T08:36:25.535Z,29.38
2023-02-21T08:38:53.585Z,29.02
2023-02-21T08:41:25.808Z,27.65
2023-02-21T08:43:53.964Z,28.05
2023-02-21T08:46:22.066Z,26.73
2023-02-21T08:48:51.577Z,28.27
2023-02-21T08:51:19.730Z,26.30
2023-02-21T08:53:47.830Z,27.75
2023-02-21T08:56:20.597Z,26.23
2023-02-21T08:58:48.761Z,28.30
2023-02-21T09:01:17.567Z,27.98
2023-02-21T09:03:45.856Z,25.98
2023-02-21T09:06:15.686Z,25.95
2023-02-21T09:08:43.870Z,26.05
2023-02-21T09:11:12.004Z,23.48
2023-02-21T09:13:40.292Z,22.20
2023-02-21T09:16:08.579Z,21.08
2023-02-21T09:18:36.801Z,21.30
2023-02-21T09:21:05.348Z,21.25
2023-02-21T09:23:35.004Z,21.63
2023-02-21T09:26:03.179Z,21.40
2023-02-21T09:28:31.704Z,21.50
2023-02-21T09:30:59.924Z,20.90
2023-02-21T09:33:28.061Z,18.80
2023-02-21T09:35:56.111Z,19.35
2023-02-21T09:38:24.135Z,20.00
2023-02-21T09:40:59.717Z,18.38
2023-02-21T09:43:33.445Z,17.73
2023-02-21T09:46:05.532Z,18.55
2023-02-21T09:48:33.713Z,18.42
2023-02-21T09:51:07.940Z,18.65
2023-02-21T09:53:43.066Z,17.05
2023-02-21T09:56:19.393Z,17.40
2023-02-21T09:58:48.249Z,17.52
2023-02-21T10:01:26.767Z,17.20
2023-02-21T10:04:07.610Z,17.25
2023-02-21T10:06:44.922Z,18.40
2023-02-21T10:09:26.067Z,18.23
2023-02-21T10:12:11.354Z,18.55
2023-02-21T10:14:56.945Z,18.25
2023-02-21T10:17:29.945Z,17.88
2023-02-21T10:20:05.355Z,18.08
2023-02-21T10:22:38.223Z,18.70
2023-02-21T10:25:21.760Z,17.90
2023-02-21T10:27:53.750Z,18.75
2023-02-21T10:30:30.124Z,20.00
2023-02-21T10:32:58.746Z,18.67
2023-02-21T10:35:26.849Z,19.40
2023-02-21T10:37:58.189Z,17.58
2023-02-21T10:40:31.880Z,17.63
2023-02-21T10:43:08.521Z,18.20
2023-02-21T10:45:41.324Z,17.67
2023-02-21T10:48:12.073Z,17.83
2023-02-21T10:50:43.880Z,17.00
2023-02-21T10:53:25.915Z,18.85
2023-02-21T10:56:27.030Z,16.90
2023-02-21T10:58:59.415Z,16.50
2023-02-21T11:01:49.215Z,16.70
2023-02-21T11:04:31.985Z,15.80
2023-02-21T11:07:05.277Z,16.75
2023-02-21T11:09:37.760Z,17.17
2023-02-21T11:12:17.558Z,16.05
2023-02-21T11:15:07.340Z,16.08
2023-02-21T11:17:35.419Z,15.52
2023-02-21T11:20:08.252Z,16.00
2023-02-21T11:22:42.834Z,15.77
2023-02-21T11:25:22.340Z,17.27
2023-02-21T11:28:02.170Z,15.57
2023-02-21T11:30:34.008Z,15.43
2023-02-21T11:33:04.857Z,16.43
2023-02-21T11:35:43.870Z,15.32
2023-02-21T11:38:38.211Z,15.30
2023-02-21T11:41:27.723Z,14.57
2023-02-21T11:44:02.466Z,14.18
2023-02-21T11:46:40.577Z,13.77
2023-02-21T11:49:18.721Z,13.75
2023-02-21T11:51:50.108Z,12.68
2023-02-21T11:54:20.865Z,10.90
2023-02-21T11:56:53.493Z,11.07
2023-02-21T11:59:36.859Z,11.27
2023-02-21T12:02:27.703Z,11.20
2023-02-21T12:05:08.301Z,10.65
2023-02-21T12:07:46.783Z,11.05
2023-02-21T12:10:37.634Z,10.80
2023-02-21T12:13:17.998Z,9.70
2023-02-21T12:15:56.816Z,9.82
2023-02-21T12:18:39.947Z,9.23
2023-02-21T12:21:35.972Z,9.07
2023-02-21T12:24:26.071Z,9.07
2023-02-21T12:27:02.272Z,9.32
2023-02-21T12:29:48.662Z,10.18
2023-02-21T12:32:44.940Z,9.43
2023-02-21T12:35:50.285Z,8.68
2023-02-21T12:38:31.080Z,8.68
2023-02-21T12:41:09.141Z,9.02
2023-02-21T12:43:53.600Z,9.70
2023-02-21T12:46:28.896Z,10.10
2023-02-21T12:49:03.920Z,7.78
2023-02-21T12:51:40.051Z,9.25
2023-02-21T12:54:16.151Z,9.45
2023-02-21T12:56:54.047Z,9.02
2023-02-21T12:59:29.194Z,8.45
2023-02-21T13:02:02.459Z,9.65
2023-02-21T13:04:38.480Z,8.60
2023-02-21T13:07:25.566Z,8.90
2023-02-21T13:10:02.025Z,8.90
2023-02-21T13:12:37.167Z,8.00
2023-02-21T13:15:16.802Z,8.75
2023-02-21T13:17:50.141Z,9.00
2023-02-21T13:20:22.521Z,9.60
2023-02-21T13:22:52.569Z,9.32
2023-02-21T13:25:32.772Z,9.57
2023-02-21T13:28:07.369Z,9.32
2023-02-21T13:30:41.343Z,9.70
2023-02-21T13:33:25.806Z,9.23
2023-02-21T13:35:54.348Z,9.32
2023-02-21T13:38:23.962Z,9.95
2023-02-21T13:40:55.664Z,10.70
2023-02-21T13:43:27.314Z,11.23
2023-02-21T13:45:55.598Z,10.70
2023-02-21T13:48:30.122Z,10.68
2023-02-21T13:51:01.760Z,10.52
2023-02-21T13:53:34.130Z,11.48
2023-02-21T13:56:17.702Z,11.60
2023-02-21T13:58:49.272Z,10.77
2023-02-21T14:01:42.688Z,11.20
2023-02-21T14:04:59.353Z,11.10
2023-02-21T14:07:53.534Z,10.10
2023-02-21T14:10:29.645Z,9.90
2023-02-21T14:13:01.744Z,9.80
2023-02-21T14:15:45.273Z,11.85
2023-02-21T14:18:21.544Z,10.25
2023-02-21T14:20:52.562Z,10.05
2023-02-21T14:23:23.828Z,11.23
2023-02-21T14:26:04.296Z,10.73
2023-02-21T14:29:02.080Z,11.05
2023-02-21T14:31:51.019Z,10.32
2023-02-21T14:34:25.582Z,11.88
2023-02-21T14:36:57.688Z,11.73
2023-02-21T14:39:31.933Z,11.27
2023-02-21T14:42:20.044Z,12.30
2023-02-21T14:45:10.944Z,11.57
2023-02-21T14:47:55.866Z,11.88
2023-02-21T14:50:47.088Z,12.35
2023-02-21T14:53:38.504Z,11.95
2023-02-21T14:56:48.375Z,11.70
2023-02-21T15:00:05.509Z,11.35
2023-02-21T15:02:42.961Z,12.20
2023-02-21T15:05:17.836Z,12.30
2023-02-21T15:07:56.415Z,13.02
2023-02-21T15:10:26.696Z,12.10
2023-02-21T15:12:57.364Z,13.50
2023-02-21T15:15:28.750Z,12.48
2023-02-21T15:18:09.840Z,14.20
2023-02-21T15:20:40.046Z,13.25
2023-02-21T15:23:16.387Z,13.38
2023-02-21T15:25:45.272Z,12.93
2023-02-21T15:28:32.092Z,14.48
2023-02-21T15:31:03.350Z,14.68
2023-02-21T15:33:35.108Z,14.40
2023-02-21T15:36:06.965Z,14.88
2023-02-21T15:38:39.295Z,15.40
2023-02-21T15:41:11.138Z,14.82
2023-02-21T15:43:47.496Z,14.97
2023-02-21T15:46:21.892Z,14.15
2023-02-21T15:48:53.285Z,15.10
2023-02-21T15:51:22.160Z,14.55
2023-02-21T15:54:12.157Z,13.55
2023-02-21T15:56:40.334Z,14.85
2023-02-21T15:59:11.370Z,14.43
2023-02-21T16:01:39.993Z,13.63
2023-02-21T16:04:25.899Z,13.65
2023-02-21T16:06:56.510Z,14.90
2023-02-21T16:09:30.348Z,14.60
2023-02-21T16:12:02.204Z,13.48
2023-02-21T16:14:43.029Z,14.97
2023-02-21T16:17:22.453Z,14.32
2023-02-21T16:19:54.601Z,13.95
2023-02-21T16:22:28.196Z,14.18
2023-02-21T16:25:20.017Z,13.07
2023-02-21T16:27:50.913Z,13.40
2023-02-21T16:30:21.732Z,13.05
2023-02-21T16:32:52.042Z,11.93
2023-02-21T16:35:23.363Z,12.88
2023-02-21T16:37:53.563Z,13.05
2023-02-21T16:40:25.076Z,13.00
2023-02-21T16:42:54.390Z,13.90
2023-02-21T16:45:23.178Z,14.07
2023-02-21T16:47:57.581Z,12.45
2023-02-21T16:50:31.197Z,13.15
2023-02-21T16:52:59.793Z,13.02
2023-02-21T16:55:28.562Z,12.30
2023-02-21T16:57:59.885Z,12.98
2023-02-21T17:00:28.163Z,12.68
2023-02-21T17:02:56.271Z,12.38
2023-02-21T17:05:24.890Z,10.95
2023-02-21T17:07:57.461Z,10.40
2023-02-21T17:10:25.555Z,9.40
2023-02-21T17:12:53.668Z,9.32
2023-02-21T17:15:23.858Z,8.68
2023-02-21T17:17:53.851Z,9.38
2023-02-21T17:20:23.958Z,9.68
2023-02-21T17:25:27.646Z,10.07
2023-02-21T17:27:56.178Z,9.55
2023-02-21T17:30:26.094Z,9.23
2023-02-21T17:32:54.204Z,10.82
2023-02-21T17:35:24.694Z,9.85
2023-02-21T17:37:53.105Z,10.75
2023-02-21T17:40:23.821Z,10.65
2023-02-21T17:42:51.963Z,10.13
2023-02-21T17:45:21.617Z,10.70
2023-02-21T17:47:54.290Z,11.63
2023-02-21T17:50:22.514Z,11.73
2023-02-21T17:52:50.654Z,11.98
2023-02-21T17:55:22.388Z,10.60
2023-02-21T17:57:51.807Z,10.63
2023-02-21T18:00:24.491Z,10.73
2023-02-21T18:05:21.132Z,11.80
2023-02-21T18:07:49.778Z,12.60
2023-02-21T18:10:18.674Z,12.82
2023-02-21T18:12:48.218Z,14.68
2023-02-21T18:15:20.847Z,15.27
2023-02-21T18:17:49.017Z,14.15
2023-02-21T18:20:17.490Z,13.05
2023-02-21T18:22:45.968Z,12.32
2023-02-21T18:25:16.035Z,13.65
2023-02-21T18:27:44.175Z,12.77
2023-02-21T18:30:12.972Z,11.98
2023-02-21T18:32:42.396Z,11.48
2023-02-21T18:35:10.904Z,13.20
2023-02-21T18:37:39.002Z,13.15
2023-02-21T18:40:08.354Z,13.00
2023-02-21T18:42:36.521Z,12.45
2023-02-21T18:45:04.794Z,13.32
2023-02-21T18:47:34.620Z,13.25
2023-02-21T18:50:04.478Z,13.68
2023-02-21T18:52:32.607Z,13.00
2023-02-21T18:55:03.814Z,13.70
2023-02-21T18:57:32.304Z,13.13
2023-02-21T19:00:01.364Z,13.43
2023-02-21T19:02:29.395Z,13.10
2023-02-21T19:04:57.460Z,13.82
2023-02-21T19:07:27.165Z,13.85
2023-02-21T19:09:55.443Z,13.38
2023-02-21T19:12:23.469Z,12.15
2023-02-21T19:14:51.531Z,13.75
2023-02-21T19:17:19.717Z,13.30
2023-02-21T19:19:50.398Z,13.65
2023-02-21T19:22:18.442Z,16.20
2023-02-21T19:24:47.943Z,14.15
2023-02-21T19:27:16.374Z,16.23
2023-02-21T19:29:44.632Z,15.70
2023-02-21T19:32:12.914Z,15.73
2023-02-21T19:34:41.056Z,15.73
2023-02-21T19:37:09.507Z,16.90
2023-02-21T19:39:37.693Z,16.17
2023-02-21T19:42:07.462Z,15.68
2023-02-21T19:44:35.926Z,16.30
2023-02-21T19:47:04.352Z,15.75
2023-02-21T19:49:32.460Z,17.02
2023-02-21T19:52:00.590Z,16.52
2023-02-21T19:54:30.046Z,15.48
2023-02-21T19:56:58.649Z,15.98
2023-02-21T19:59:29.405Z,16.33
2023-02-21T20:01:57.657Z,16.20
2023-02-21T20:04:27.208Z,15.75
2023-02-21T20:06:55.362Z,16.35
2023-02-21T20:09:23.489Z,16.33
2023-02-21T20:11:51.571Z,16.35
2023-02-21T20:14:19.634Z,17.20
2023-02-21T20:16:49.100Z,18.23
2023-02-21T20:19:17.312Z,17.48
2023-02-21T20:21:45.885Z,18.83
2023-02-21T20:24:13.935Z,17.77
2023-02-21T20:26:42.019Z,17.67
2023-02-21T20:29:10.081Z,18.35
2023-02-21T20:31:38.850Z,16.38
2023-02-21T20:34:08.613Z,16.30
2023-02-21T20:36:38.823Z,17.20
2023-02-21T20:39:08.605Z,17.17
2023-02-21T20:41:39.018Z,17.58
2023-02-21T20:44:07.430Z,17.17
2023-02-21T20:46:37.193Z,18.65
2023-02-21T20:49:08.880Z,16.65
2023-02-21T20:51:39.181Z,17.73
2023-02-21T20:54:11.123Z,17.63
2023-02-21T20:56:41.055Z,18.73
2023-02-21T20:59:15.904Z,19.33
2023-02-21T21:01:48.147Z,19.10
2023-02-21T21:04:19.733Z,19.13
2023-02-21T21:06:48.657Z,17.70
2023-02-21T21:09:18.081Z,18.45
2023-02-21T21:11:46.878Z,18.98
2023-02-21T21:14:16.301Z,18.83
2023-02-21T21:16:45.844Z,19.10
2023-02-21T21:19:13.926Z,17.02
2023-02-21T21:21:43.361Z,17.73
2023-02-21T21:24:11.712Z,18.02
2023-02-21T21:26:47.316Z,17.83
2023-02-21T21:29:15.570Z,17.73
2023-02-21T21:31:47.855Z,18.13
2023-02-21T21:34:16.022Z,17.67
2023-02-21T21:36:46.472Z,21.02
2023-02-21T21:39:15.105Z,18.88
2023-02-21T21:41:46.564Z,19.83
2023-02-21T21:44:14.687Z,17.70
2023-02-21T21:46:46.816Z,18.30
2023-02-21T21:49:16.264Z,17.25
2023-02-21T21:51:46.167Z,17.95
2023-02-21T21:54:15.288Z,18.75
2023-02-21T21:56:43.813Z,17.50
2023-02-21T21:59:12.442Z,17.85
2023-02-21T22:01:41.512Z,17.80
2023-02-21T22:04:10.778Z,16.48
2023-02-21T22:06:38.885Z,17.55
2023-02-21T22:09:09.701Z,16.60
2023-02-21T22:11:37.764Z,17.60
2023-02-21T22:14:05.775Z,18.20
2023-02-21T22:16:36.612Z,17.08
2023-02-21T22:19:04.656Z,17.95
2023-02-21T22:21:32.916Z,16.63
2023-02-21T22:24:01.507Z,17.38
2023-02-21T22:26:31.968Z,17.83
2023-02-21T22:29:00.651Z,17.38
2023-02-21T22:31:29.183Z,17.20
2023-02-21T22:33:59.373Z,17.25
2023-02-21T22:36:27.835Z,16.80
2023-02-21T22:38:57.124Z,17.63
2023-02-21T22:41:27.508Z,16.27
2023-02-21T22:43:58.397Z,16.42
2023-02-21T22:46:28.788Z,16.58
2023-02-21T22:48:57.244Z,16.77
2023-02-21T22:51:29.191Z,17.25
2023-02-21T22:53:58.832Z,17.52
2023-02-21T22:56:29.311Z,18.33
2023-02-21T22:59:00.147Z,16.05
2023-02-21T23:01:29.084Z,16.55
2023-02-21T23:04:10.711Z,16.52
2023-02-21T23:06:39.249Z,15.57
2023-02-21T23:09:13.112Z,17.30
2023-02-21T23:11:42.618Z,16.10
2023-02-21T23:14:14.156Z,16.05
2023-02-21T23:16:43.216Z,16.27
2023-02-21T23:19:12.605Z,15.70
2023-02-21T23:21:46.094Z,16.48
2023-02-21T23:24:15.821Z,14.80
2023-02-21T23:26:46.121Z,15.80
2023-02-21T23:29:17.912Z,17.20
2023-02-21T23:31:46.582Z,15.50
2023-02-21T23:34:14.811Z,15.05
2023-02-21T23:36:44.501Z,16.58
2023-02-21T23:39:15.338Z,15.00
2023-02-21T23:41:49.205Z,15.60
2023-02-21T23:44:18.867Z,15.48
2023-02-21T23:46:47.025Z,15.52
2023-02-21T23:49:16.567Z,15.13
2023-02-21T23:51:46.801Z,16.00
2023-02-21T23:54:15.216Z,14.18
2023-02-21T23:56:47.059Z,15.48
2023-02-21T23:59:16.160Z,14.60
